sensor_id;sensor_type;location;lat;lon;timestamp;P1;durP1;ratioP1;P2;durP2;ratioP2
51214;SDS011;41093;47.444;19.134;2022-09-01T00:01:09;3.42;;;3.13;;
51214;SDS011;41093;47.444;19.134;2022-09-01T00:03:42;3.20;;;2.83;;
51214;SDS011;41093;47.444;19.134;2022-09-01T00:06:13;4.32;;;3.47;;
51214;SDS011;41093;47.444;19.134;2022-09-01T00:08:40;3.95;;;3.47;;
51214;SDS011;41093;47.444;19.134;2022-09-01T00:11:06;3.95;;;3.38;;
51214;SDS011;41093;47.444;19.134;2022-09-01T00:13:32;4.32;;;3.03;;
51214;SDS011;41093;47.444;19.134;2022-09-01T00:16:01;4.00;;;3.60;;
51214;SDS011;41093;47.444;19.134;2022-09-01T00:18:28;3.60;;;3.30;;
51214;SDS011;41093;47.444;19.134;2022-09-01T00:20:55;4.13;;;3.70;;
51214;SDS011;41093;47.444;19.134;2022-09-01T00:23:23;5.70;;;3.50;;
51214;SDS011;41093;47.444;19.134;2022-09-01T00:25:52;5.18;;;3.88;;
51214;SDS011;41093;47.444;19.134;2022-09-01T00:28:18;4.80;;;3.45;;
51214;SDS011;41093;47.444;19.134;2022-09-01T00:30:44;3.80;;;3.50;;
51214;SDS011;41093;47.444;19.134;2022-09-01T00:33:10;4.57;;;4.15;;
51214;SDS011;41093;47.444;19.134;2022-09-01T00:35:36;4.40;;;3.92;;
51214;SDS011;41093;47.444;19.134;2022-09-01T00:38:01;7.05;;;4.85;;
51214;SDS011;41093;47.444;19.134;2022-09-01T00:40:27;4.72;;;4.13;;
51214;SDS011;41093;47.444;19.134;2022-09-01T00:42:53;4.22;;;3.80;;
51214;SDS011;41093;47.444;19.134;2022-09-01T00:45:19;5.07;;;4.15;;
51214;SDS011;41093;47.444;19.134;2022-09-01T00:47:46;7.97;;;4.53;;
51214;SDS011;41093;47.444;19.134;2022-09-01T00:50:14;4.55;;;4.15;;
51214;SDS011;41093;47.444;19.134;2022-09-01T00:52:47;6.90;;;4.25;;
51214;SDS011;41093;47.444;19.134;2022-09-01T00:55:26;6.45;;;4.47;;
51214;SDS011;41093;47.444;19.134;2022-09-01T00:57:55;4.78;;;4.15;;
51214;SDS011;41093;47.444;19.134;2022-09-01T01:00:26;5.50;;;4.90;;
51214;SDS011;41093;47.444;19.134;2022-09-01T01:02:53;5.43;;;4.53;;
51214;SDS011;41093;47.444;19.134;2022-09-01T01:05:40;6.47;;;4.40;;
51214;SDS011;41093;47.444;19.134;2022-09-01T01:08:18;7.50;;;5.05;;
51214;SDS011;41093;47.444;19.134;2022-09-01T01:11:02;6.50;;;5.40;;
51214;SDS011;41093;47.444;19.134;2022-09-01T01:13:29;5.45;;;4.95;;
51214;SDS011;41093;47.444;19.134;2022-09-01T01:16:00;6.22;;;5.50;;
51214;SDS011;41093;47.444;19.134;2022-09-01T01:18:28;6.10;;;5.50;;
51214;SDS011;41093;47.444;19.134;2022-09-01T01:21:03;5.88;;;5.30;;
51214;SDS011;41093;47.444;19.134;2022-09-01T01:23:53;7.88;;;5.72;;
51214;SDS011;41093;47.444;19.134;2022-09-01T01:26:25;7.10;;;6.40;;
51214;SDS011;41093;47.444;19.134;2022-09-01T01:28:51;6.95;;;6.25;;
51214;SDS011;41093;47.444;19.134;2022-09-01T01:31:18;6.85;;;6.10;;
51214;SDS011;41093;47.444;19.134;2022-09-01T01:33:48;11.10;;;6.88;;
51214;SDS011;41093;47.444;19.134;2022-09-01T01:36:23;9.10;;;7.00;;
51214;SDS011;41093;47.444;19.134;2022-09-01T01:38:57;7.05;;;6.25;;
51214;SDS011;41093;47.444;19.134;2022-09-01T01:41:28;7.75;;;6.60;;
51214;SDS011;41093;47.444;19.134;2022-09-01T01:43:59;9.13;;;7.50;;
51214;SDS011;41093;47.444;19.134;2022-09-01T01:46:30;7.57;;;6.85;;
51214;SDS011;41093;47.444;19.134;2022-09-01T01:48:57;8.23;;;7.45;;
51214;SDS011;41093;47.444;19.134;2022-09-01T01:51:26;11.23;;;7.78;;
51214;SDS011;41093;47.444;19.134;2022-09-01T01:53:53;8.10;;;7.40;;
51214;SDS011;41093;47.444;19.134;2022-09-01T01:56:20;8.18;;;7.38;;
51214;SDS011;41093;47.444;19.134;2022-09-01T01:58:50;8.48;;;7.38;;
51214;SDS011;41093;47.444;19.134;2022-09-01T02:01:24;9.18;;;7.55;;
51214;SDS011;41093;47.444;19.134;2022-09-01T02:03:53;11.38;;;8.43;;
51214;SDS011;41093;47.444;19.134;2022-09-01T02:06:22;11.38;;;7.88;;
51214;SDS011;41093;47.444;19.134;2022-09-01T02:08:49;9.80;;;7.97;;
51214;SDS011;41093;47.444;19.134;2022-09-01T02:11:17;9.10;;;6.72;;
51214;SDS011;41093;47.444;19.134;2022-09-01T02:13:43;8.20;;;7.40;;
51214;SDS011;41093;47.444;19.134;2022-09-01T02:16:11;8.82;;;8.02;;
51214;SDS011;41093;47.444;19.134;2022-09-01T02:18:38;9.60;;;8.15;;
51214;SDS011;41093;47.444;19.134;2022-09-01T02:21:07;8.15;;;7.32;;
51214;SDS011;41093;47.444;19.134;2022-09-01T02:23:35;8.73;;;6.90;;
51214;SDS011;41093;47.444;19.134;2022-09-01T02:26:02;8.93;;;7.03;;
51214;SDS011;41093;47.444;19.134;2022-09-01T02:28:30;7.53;;;6.70;;
51214;SDS011;41093;47.444;19.134;2022-09-01T02:31:00;6.38;;;5.88;;
51214;SDS011;41093;47.444;19.134;2022-09-01T02:33:28;6.45;;;5.85;;
51214;SDS011;41093;47.444;19.134;2022-09-01T02:35:59;7.18;;;6.03;;
51214;SDS011;41093;47.444;19.134;2022-09-01T02:38:27;6.90;;;5.97;;
51214;SDS011;41093;47.444;19.134;2022-09-01T02:40:57;6.53;;;5.97;;
51214;SDS011;41093;47.444;19.134;2022-09-01T02:43:26;6.80;;;6.10;;
51214;SDS011;41093;47.444;19.134;2022-09-01T02:45:53;7.63;;;5.95;;
51214;SDS011;41093;47.444;19.134;2022-09-01T02:48:29;6.93;;;5.40;;
51214;SDS011;41093;47.444;19.134;2022-09-01T02:50:58;5.55;;;5.00;;
51214;SDS011;41093;47.444;19.134;2022-09-01T02:53:26;6.63;;;6.03;;
51214;SDS011;41093;47.444;19.134;2022-09-01T02:55:55;6.75;;;5.65;;
51214;SDS011;41093;47.444;19.134;2022-09-01T02:58:24;7.00;;;6.28;;
51214;SDS011;41093;47.444;19.134;2022-09-01T03:00:52;6.57;;;5.97;;
51214;SDS011;41093;47.444;19.134;2022-09-01T03:03:19;8.13;;;5.60;;
51214;SDS011;41093;47.444;19.134;2022-09-01T03:05:46;6.63;;;5.05;;
51214;SDS011;41093;47.444;19.134;2022-09-01T03:08:16;5.63;;;5.00;;
51214;SDS011;41093;47.444;19.134;2022-09-01T03:10:42;6.72;;;4.97;;
51214;SDS011;41093;47.444;19.134;2022-09-01T03:13:10;6.07;;;4.10;;
51214;SDS011;41093;47.444;19.134;2022-09-01T03:15:38;6.68;;;4.65;;
51214;SDS011;41093;47.444;19.134;2022-09-01T03:18:05;7.45;;;4.15;;
51214;SDS011;41093;47.444;19.134;2022-09-01T03:20:33;6.40;;;4.15;;
51214;SDS011;41093;47.444;19.134;2022-09-01T03:23:01;6.70;;;4.38;;
51214;SDS011;41093;47.444;19.134;2022-09-01T03:25:29;6.15;;;4.10;;
51214;SDS011;41093;47.444;19.134;2022-09-01T03:27:56;4.93;;;4.25;;
51214;SDS011;41093;47.444;19.134;2022-09-01T03:30:29;4.78;;;3.92;;
51214;SDS011;41093;47.444;19.134;2022-09-01T03:32:57;4.72;;;3.55;;
51214;SDS011;41093;47.444;19.134;2022-09-01T03:35:23;6.03;;;4.63;;
51214;SDS011;41093;47.444;19.134;2022-09-01T03:37:52;7.57;;;3.70;;
51214;SDS011;41093;47.444;19.134;2022-09-01T03:40:23;5.10;;;4.20;;
51214;SDS011;41093;47.444;19.134;2022-09-01T03:42:52;7.07;;;4.15;;
51214;SDS011;41093;47.444;19.134;2022-09-01T03:45:19;4.90;;;4.03;;
51214;SDS011;41093;47.444;19.134;2022-09-01T03:47:46;4.55;;;4.10;;
51214;SDS011;41093;47.444;19.134;2022-09-01T03:50:16;6.70;;;3.83;;
51214;SDS011;41093;47.444;19.134;2022-09-01T03:52:47;7.68;;;4.07;;
51214;SDS011;41093;47.444;19.134;2022-09-01T03:55:22;5.35;;;4.30;;
51214;SDS011;41093;47.444;19.134;2022-09-01T03:57:55;5.70;;;5.05;;
51214;SDS011;41093;47.444;19.134;2022-09-01T04:00:28;5.28;;;4.78;;
51214;SDS011;41093;47.444;19.134;2022-09-01T04:02:55;4.88;;;3.60;;
51214;SDS011;41093;47.444;19.134;2022-09-01T04:05:23;6.25;;;3.40;;
51214;SDS011;41093;47.444;19.134;2022-09-01T04:07:53;7.13;;;4.22;;
51214;SDS011;41093;47.444;19.134;2022-09-01T04:10:26;7.78;;;4.00;;
51214;SDS011;41093;47.444;19.134;2022-09-01T04:12:51;4.63;;;3.97;;
51214;SDS011;41093;47.444;19.134;2022-09-01T04:15:20;4.72;;;3.40;;
51214;SDS011;41093;47.444;19.134;2022-09-01T04:17:46;3.50;;;3.20;;
51214;SDS011;41093;47.444;19.134;2022-09-01T04:20:31;5.05;;;3.03;;
51214;SDS011;41093;47.444;19.134;2022-09-01T04:23:06;5.35;;;3.10;;
51214;SDS011;41093;47.444;19.134;2022-09-01T04:25:35;5.40;;;3.47;;
51214;SDS011;41093;47.444;19.134;2022-09-01T04:28:03;3.70;;;3.30;;
51214;SDS011;41093;47.444;19.134;2022-09-01T04:30:38;3.90;;;3.30;;
51214;SDS011;41093;47.444;19.134;2022-09-01T04:33:07;8.52;;;3.60;;
51214;SDS011;41093;47.444;19.134;2022-09-01T04:35:40;5.85;;;3.63;;
51214;SDS011;41093;47.444;19.134;2022-09-01T04:38:05;4.97;;;3.67;;
51214;SDS011;41093;47.444;19.134;2022-09-01T04:40:36;9.15;;;4.15;;
51214;SDS011;41093;47.444;19.134;2022-09-01T04:43:05;4.93;;;3.67;;
51214;SDS011;41093;47.444;19.134;2022-09-01T04:45:33;5.68;;;3.60;;
51214;SDS011;41093;47.444;19.134;2022-09-01T04:48:00;6.47;;;4.10;;
51214;SDS011;41093;47.444;19.134;2022-09-01T04:50:27;4.38;;;3.97;;
51214;SDS011;41093;47.444;19.134;2022-09-01T04:52:56;4.72;;;3.33;;
51214;SDS011;41093;47.444;19.134;2022-09-01T04:55:25;4.85;;;4.38;;
51214;SDS011;41093;47.444;19.134;2022-09-01T04:57:54;6.03;;;4.38;;
51214;SDS011;41093;47.444;19.134;2022-09-01T05:00:26;6.40;;;4.82;;
51214;SDS011;41093;47.444;19.134;2022-09-01T05:03:00;5.75;;;4.47;;
51214;SDS011;41093;47.444;19.134;2022-09-01T05:05:38;6.00;;;4.90;;
51214;SDS011;41093;47.444;19.134;2022-09-01T05:08:06;5.68;;;4.53;;
51214;SDS011;41093;47.444;19.134;2022-09-01T05:10:45;5.50;;;5.00;;
51214;SDS011;41093;47.444;19.134;2022-09-01T05:13:16;5.47;;;4.72;;
51214;SDS011;41093;47.444;19.134;2022-09-01T05:15:44;7.05;;;4.93;;
51214;SDS011;41093;47.444;19.134;2022-09-01T05:18:14;6.53;;;5.80;;
51214;SDS011;41093;47.444;19.134;2022-09-01T05:20:48;6.20;;;5.07;;
51214;SDS011;41093;47.444;19.134;2022-09-01T05:23:14;5.97;;;4.65;;
51214;SDS011;41093;47.444;19.134;2022-09-01T05:25:43;6.68;;;4.95;;
51214;SDS011;41093;47.444;19.134;2022-09-01T05:28:13;6.30;;;5.70;;
51214;SDS011;41093;47.444;19.134;2022-09-01T05:30:41;9.90;;;6.60;;
51214;SDS011;41093;47.444;19.134;2022-09-01T05:33:09;7.15;;;6.03;;
51214;SDS011;41093;47.444;19.134;2022-09-01T05:35:37;7.38;;;6.68;;
51214;SDS011;41093;47.444;19.134;2022-09-01T05:38:07;6.88;;;6.25;;
51214;SDS011;41093;47.444;19.134;2022-09-01T05:40:40;9.75;;;6.78;;
51214;SDS011;41093;47.444;19.134;2022-09-01T05:43:11;7.88;;;6.25;;
51214;SDS011;41093;47.444;19.134;2022-09-01T05:45:39;7.30;;;6.40;;
51214;SDS011;41093;47.444;19.134;2022-09-01T05:48:11;7.65;;;6.38;;
51214;SDS011;41093;47.444;19.134;2022-09-01T05:50:40;8.80;;;6.32;;
51214;SDS011;41093;47.444;19.134;2022-09-01T05:53:09;9.07;;;6.80;;
51214;SDS011;41093;47.444;19.134;2022-09-01T05:55:46;7.82;;;6.97;;
51214;SDS011;41093;47.444;19.134;2022-09-01T05:58:13;9.35;;;6.20;;
51214;SDS011;41093;47.444;19.134;2022-09-01T06:00:44;6.60;;;5.90;;
51214;SDS011;41093;47.444;19.134;2022-09-01T06:03:13;8.07;;;5.63;;
51214;SDS011;41093;47.444;19.134;2022-09-01T06:05:41;6.85;;;5.57;;
51214;SDS011;41093;47.444;19.134;2022-09-01T06:08:12;8.52;;;5.38;;
51214;SDS011;41093;47.444;19.134;2022-09-01T06:10:39;6.03;;;5.40;;
51214;SDS011;41093;47.444;19.134;2022-09-01T06:13:06;7.15;;;5.00;;
51214;SDS011;41093;47.444;19.134;2022-09-01T06:15:33;6.65;;;5.40;;
51214;SDS011;41093;47.444;19.134;2022-09-01T06:18:00;4.97;;;4.57;;
51214;SDS011;41093;47.444;19.134;2022-09-01T06:20:26;8.98;;;4.60;;
51214;SDS011;41093;47.444;19.134;2022-09-01T06:22:54;6.40;;;4.40;;
51214;SDS011;41093;47.444;19.134;2022-09-01T06:25:20;4.68;;;3.30;;
51214;SDS011;41093;47.444;19.134;2022-09-01T06:27:46;6.30;;;3.55;;
51214;SDS011;41093;47.444;19.134;2022-09-01T06:30:13;5.47;;;3.20;;
51214;SDS011;41093;47.444;19.134;2022-09-01T06:32:51;6.30;;;4.05;;
51214;SDS011;41093;47.444;19.134;2022-09-01T06:35:18;3.78;;;3.03;;
51214;SDS011;41093;47.444;19.134;2022-09-01T06:37:45;5.78;;;3.13;;
51214;SDS011;41093;47.444;19.134;2022-09-01T06:40:13;5.43;;;3.42;;
51214;SDS011;41093;47.444;19.134;2022-09-01T06:42:44;7.38;;;3.53;;
51214;SDS011;41093;47.444;19.134;2022-09-01T06:45:14;5.57;;;3.00;;
51214;SDS011;41093;47.444;19.134;2022-09-01T06:47:42;5.55;;;3.17;;
51214;SDS011;41093;47.444;19.134;2022-09-01T06:50:13;4.00;;;3.20;;
51214;SDS011;41093;47.444;19.134;2022-09-01T06:52:41;6.20;;;3.38;;
51214;SDS011;41093;47.444;19.134;2022-09-01T06:55:08;3.65;;;2.85;;
51214;SDS011;41093;47.444;19.134;2022-09-01T06:57:35;3.00;;;2.13;;
51214;SDS011;41093;47.444;19.134;2022-09-01T07:00:03;5.63;;;2.42;;
51214;SDS011;41093;47.444;19.134;2022-09-01T07:02:43;6.25;;;2.60;;
51214;SDS011;41093;47.444;19.134;2022-09-01T07:05:10;5.40;;;3.15;;
51214;SDS011;41093;47.444;19.134;2022-09-01T07:07:41;4.97;;;2.95;;
51214;SDS011;41093;47.444;19.134;2022-09-01T07:10:13;5.85;;;3.28;;
51214;SDS011;41093;47.444;19.134;2022-09-01T07:12:39;8.55;;;3.25;;
51214;SDS011;41093;47.444;19.134;2022-09-01T07:15:10;3.80;;;3.40;;
51214;SDS011;41093;47.444;19.134;2022-09-01T07:17:39;3.50;;;2.65;;
51214;SDS011;41093;47.444;19.134;2022-09-01T07:20:06;7.38;;;3.22;;
51214;SDS011;41093;47.444;19.134;2022-09-01T07:22:34;4.47;;;2.63;;
51214;SDS011;41093;47.444;19.134;2022-09-01T07:25:00;5.78;;;3.10;;
51214;SDS011;41093;47.444;19.134;2022-09-01T07:27:26;4.32;;;2.40;;
51214;SDS011;41093;47.444;19.134;2022-09-01T07:29:52;3.33;;;2.58;;
51214;SDS011;41093;47.444;19.134;2022-09-01T07:32:21;4.03;;;2.38;;
51214;SDS011;41093;47.444;19.134;2022-09-01T07:34:47;3.38;;;2.20;;
51214;SDS011;41093;47.444;19.134;2022-09-01T07:37:13;10.10;;;2.70;;
51214;SDS011;41093;47.444;19.134;2022-09-01T07:39:39;4.10;;;3.10;;
51214;SDS011;41093;47.444;19.134;2022-09-01T07:42:11;3.95;;;2.58;;
51214;SDS011;41093;47.444;19.134;2022-09-01T07:44:37;5.32;;;2.80;;
51214;SDS011;41093;47.444;19.134;2022-09-01T07:47:03;3.08;;;2.30;;
51214;SDS011;41093;47.444;19.134;2022-09-01T07:49:33;3.05;;;2.03;;
51214;SDS011;41093;47.444;19.134;2022-09-01T07:52:02;3.83;;;2.50;;
51214;SDS011;41093;47.444;19.134;2022-09-01T07:54:29;6.07;;;2.78;;
51214;SDS011;41093;47.444;19.134;2022-09-01T07:56:55;4.38;;;2.28;;
51214;SDS011;41093;47.444;19.134;2022-09-01T07:59:21;2.70;;;1.98;;
51214;SDS011;41093;47.444;19.134;2022-09-01T08:01:47;4.32;;;2.38;;
51214;SDS011;41093;47.444;19.134;2022-09-01T08:04:13;6.22;;;2.60;;
51214;SDS011;41093;47.444;19.134;2022-09-01T08:06:40;7.28;;;2.33;;
51214;SDS011;41093;47.444;19.134;2022-09-01T08:09:06;3.60;;;2.10;;
51214;SDS011;41093;47.444;19.134;2022-09-01T08:11:32;5.25;;;2.38;;
51214;SDS011;41093;47.444;19.134;2022-09-01T08:13:58;3.97;;;2.22;;
51214;SDS011;41093;47.444;19.134;2022-09-01T08:16:29;3.47;;;2.50;;
51214;SDS011;41093;47.444;19.134;2022-09-01T08:18:55;3.78;;;2.30;;
51214;SDS011;41093;47.444;19.134;2022-09-01T08:21:22;6.88;;;2.70;;
51214;SDS011;41093;47.444;19.134;2022-09-01T08:23:49;4.90;;;2.72;;
51214;SDS011;41093;47.444;19.134;2022-09-01T08:26:17;2.55;;;2.35;;
51214;SDS011;41093;47.444;19.134;2022-09-01T08:28:44;4.38;;;2.00;;
51214;SDS011;41093;47.444;19.134;2022-09-01T08:31:11;4.85;;;2.30;;
51214;SDS011;41093;47.444;19.134;2022-09-01T08:33:39;2.67;;;2.13;;
51214;SDS011;41093;47.444;19.134;2022-09-01T08:36:06;3.05;;;2.42;;
51214;SDS011;41093;47.444;19.134;2022-09-01T08:38:34;2.30;;;1.90;;
51214;SDS011;41093;47.444;19.134;2022-09-01T08:41:00;4.90;;;2.40;;
51214;SDS011;41093;47.444;19.134;2022-09-01T08:46:13;2.83;;;2.20;;
51214;SDS011;41093;47.444;19.134;2022-09-01T08:48:48;4.05;;;1.98;;
51214;SDS011;41093;47.444;19.134;2022-09-01T08:54:06;2.88;;;2.05;;
51214;SDS011;41093;47.444;19.134;2022-09-01T08:56:38;3.17;;;2.20;;
51214;SDS011;41093;47.444;19.134;2022-09-01T08:59:05;4.38;;;1.85;;
51214;SDS011;41093;47.444;19.134;2022-09-01T09:01:46;3.30;;;1.98;;
51214;SDS011;41093;47.444;19.134;2022-09-01T09:07:11;2.25;;;1.67;;
51214;SDS011;41093;47.444;19.134;2022-09-01T09:10:23;3.08;;;1.80;;
51214;SDS011;41093;47.444;19.134;2022-09-01T09:21:12;3.03;;;1.70;;
51214;SDS011;41093;47.444;19.134;2022-09-01T09:32:48;1.40;;;1.15;;
51214;SDS011;41093;47.444;19.134;2022-09-01T09:35:30;2.08;;;1.70;;
51214;SDS011;41093;47.444;19.134;2022-09-01T09:38:14;3.10;;;1.85;;
51214;SDS011;41093;47.444;19.134;2022-09-01T09:40:55;3.58;;;1.63;;
51214;SDS011;41093;47.444;19.134;2022-09-01T09:43:53;2.33;;;1.92;;
51214;SDS011;41093;47.444;19.134;2022-09-01T09:46:43;2.42;;;1.58;;
51214;SDS011;41093;47.444;19.134;2022-09-01T09:51:56;2.60;;;1.35;;
51214;SDS011;41093;47.444;19.134;2022-09-01T09:54:37;3.55;;;1.67;;
51214;SDS011;41093;47.444;19.134;2022-09-01T09:57:09;2.53;;;1.80;;
51214;SDS011;41093;47.444;19.134;2022-09-01T10:02:30;3.22;;;1.77;;
51214;SDS011;41093;47.444;19.134;2022-09-01T10:05:21;1.92;;;1.77;;
51214;SDS011;41093;47.444;19.134;2022-09-01T10:12:55;2.92;;;1.70;;
51214;SDS011;41093;47.444;19.134;2022-09-01T10:15:24;3.13;;;1.45;;
51214;SDS011;41093;47.444;19.134;2022-09-01T10:17:53;1.40;;;1.30;;
51214;SDS011;41093;47.444;19.134;2022-09-01T10:20:24;2.38;;;1.45;;
51214;SDS011;41093;47.444;19.134;2022-09-01T10:22:50;2.83;;;1.48;;
51214;SDS011;41093;47.444;19.134;2022-09-01T10:25:27;2.20;;;1.50;;
51214;SDS011;41093;47.444;19.134;2022-09-01T10:30:50;1.92;;;1.45;;
51214;SDS011;41093;47.444;19.134;2022-09-01T10:33:18;3.08;;;1.73;;
51214;SDS011;41093;47.444;19.134;2022-09-01T10:35:46;2.55;;;1.55;;
51214;SDS011;41093;47.444;19.134;2022-09-01T10:38:19;2.45;;;1.40;;
51214;SDS011;41093;47.444;19.134;2022-09-01T10:40:53;2.95;;;1.40;;
51214;SDS011;41093;47.444;19.134;2022-09-01T10:48:51;3.22;;;1.25;;
51214;SDS011;41093;47.444;19.134;2022-09-01T10:53:51;1.70;;;1.15;;
51214;SDS011;41093;47.444;19.134;2022-09-01T11:07:02;2.95;;;1.27;;
51214;SDS011;41093;47.444;19.134;2022-09-01T11:14:50;1.20;;;1.10;;
51214;SDS011;41093;47.444;19.134;2022-09-01T11:17:29;2.60;;;1.20;;
51214;SDS011;41093;47.444;19.134;2022-09-01T11:33:26;3.63;;;1.58;;
51214;SDS011;41093;47.444;19.134;2022-09-01T11:36:27;1.52;;;1.05;;
51214;SDS011;41093;47.444;19.134;2022-09-01T11:44:25;1.25;;;0.80;;
51214;SDS011;41093;47.444;19.134;2022-09-01T11:47:07;3.42;;;0.95;;
51214;SDS011;41093;47.444;19.134;2022-09-01T11:49:38;1.05;;;0.90;;
51214;SDS011;41093;47.444;19.134;2022-09-01T11:52:13;0.88;;;0.70;;
51214;SDS011;41093;47.444;19.134;2022-09-01T11:54:41;2.03;;;1.25;;
51214;SDS011;41093;47.444;19.134;2022-09-01T11:59:47;1.60;;;0.90;;
51214;SDS011;41093;47.444;19.134;2022-09-01T12:02:19;3.95;;;1.17;;
51214;SDS011;41093;47.444;19.134;2022-09-01T12:04:55;1.80;;;1.00;;
51214;SDS011;41093;47.444;19.134;2022-09-01T12:12:45;2.70;;;1.15;;
51214;SDS011;41093;47.444;19.134;2022-09-01T12:15:21;1.55;;;0.80;;
51214;SDS011;41093;47.444;19.134;2022-09-01T12:17:49;0.85;;;0.85;;
51214;SDS011;41093;47.444;19.134;2022-09-01T12:20:19;1.58;;;0.93;;
51214;SDS011;41093;47.444;19.134;2022-09-01T12:22:50;1.92;;;1.00;;
51214;SDS011;41093;47.444;19.134;2022-09-01T12:25:49;4.20;;;1.27;;
51214;SDS011;41093;47.444;19.134;2022-09-01T12:28:09;1.48;;;1.25;;
51214;SDS011;41093;47.444;19.134;2022-09-01T12:30:35;1.13;;;0.85;;
51214;SDS011;41093;47.444;19.134;2022-09-01T12:33:05;2.22;;;0.80;;
51214;SDS011;41093;47.444;19.134;2022-09-01T12:35:33;1.23;;;1.08;;
51214;SDS011;41093;47.444;19.134;2022-09-01T12:40:43;1.00;;;0.90;;
51214;SDS011;41093;47.444;19.134;2022-09-01T12:43:10;1.20;;;1.00;;
51214;SDS011;41093;47.444;19.134;2022-09-01T12:45:51;1.50;;;0.90;;
51214;SDS011;41093;47.444;19.134;2022-09-01T12:48:27;4.95;;;0.98;;
51214;SDS011;41093;47.444;19.134;2022-09-01T12:50:55;1.63;;;0.88;;
51214;SDS011;41093;47.444;19.134;2022-09-01T12:53:24;1.35;;;1.10;;
51214;SDS011;41093;47.444;19.134;2022-09-01T12:58:48;2.65;;;1.50;;
51214;SDS011;41093;47.444;19.134;2022-09-01T13:01:28;0.98;;;0.75;;
51214;SDS011;41093;47.444;19.134;2022-09-01T13:06:49;5.05;;;1.27;;
51214;SDS011;41093;47.444;19.134;2022-09-01T13:09:18;3.47;;;1.17;;
51214;SDS011;41093;47.444;19.134;2022-09-01T13:11:44;1.27;;;1.13;;
51214;SDS011;41093;47.444;19.134;2022-09-01T13:14:14;5.82;;;1.13;;
51214;SDS011;41093;47.444;19.134;2022-09-01T13:16:41;0.90;;;0.80;;
51214;SDS011;41093;47.444;19.134;2022-09-01T13:19:07;1.35;;;1.08;;
51214;SDS011;41093;47.444;19.134;2022-09-01T13:21:33;2.13;;;0.93;;
51214;SDS011;41093;47.444;19.134;2022-09-01T13:24:01;1.90;;;1.02;;
51214;SDS011;41093;47.444;19.134;2022-09-01T13:26:29;1.10;;;1.00;;
51214;SDS011;41093;47.444;19.134;2022-09-01T13:28:55;3.33;;;1.20;;
51214;SDS011;41093;47.444;19.134;2022-09-01T13:31:22;1.27;;;0.98;;
51214;SDS011;41093;47.444;19.134;2022-09-01T13:33:48;1.10;;;1.00;;
51214;SDS011;41093;47.444;19.134;2022-09-01T13:36:14;2.30;;;1.88;;
51214;SDS011;41093;47.444;19.134;2022-09-01T13:38:40;2.58;;;0.98;;
51214;SDS011;41093;47.444;19.134;2022-09-01T13:41:06;1.15;;;1.00;;
51214;SDS011;41093;47.444;19.134;2022-09-01T13:43:32;4.32;;;0.80;;
51214;SDS011;41093;47.444;19.134;2022-09-01T13:45:58;1.63;;;0.90;;
51214;SDS011;41093;47.444;19.134;2022-09-01T13:48:24;1.10;;;1.00;;
51214;SDS011;41093;47.444;19.134;2022-09-01T13:50:52;1.23;;;1.08;;
51214;SDS011;41093;47.444;19.134;2022-09-01T13:53:18;2.42;;;0.90;;
51214;SDS011;41093;47.444;19.134;2022-09-01T13:55:45;3.10;;;0.95;;
51214;SDS011;41093;47.444;19.134;2022-09-01T13:58:10;1.95;;;1.10;;
51214;SDS011;41093;47.444;19.134;2022-09-01T14:00:42;1.30;;;1.20;;
51214;SDS011;41093;47.444;19.134;2022-09-01T14:03:14;2.65;;;0.95;;
51214;SDS011;41093;47.444;19.134;2022-09-01T14:05:43;2.20;;;0.87;;
51214;SDS011;41093;47.444;19.134;2022-09-01T14:08:11;1.05;;;0.82;;
51214;SDS011;41093;47.444;19.134;2022-09-01T14:10:39;2.05;;;0.85;;
51214;SDS011;41093;47.444;19.134;2022-09-01T14:13:07;2.08;;;0.90;;
51214;SDS011;41093;47.444;19.134;2022-09-01T14:15:34;0.88;;;0.80;;
51214;SDS011;41093;47.444;19.134;2022-09-01T14:18:00;1.20;;;1.10;;
51214;SDS011;41093;47.444;19.134;2022-09-01T14:20:27;1.33;;;1.23;;
51214;SDS011;41093;47.444;19.134;2022-09-01T14:22:56;1.88;;;0.98;;
51214;SDS011;41093;47.444;19.134;2022-09-01T14:25:22;1.88;;;1.13;;
51214;SDS011;41093;47.444;19.134;2022-09-01T14:27:48;1.35;;;1.23;;
51214;SDS011;41093;47.444;19.134;2022-09-01T14:30:21;1.20;;;1.10;;
51214;SDS011;41093;47.444;19.134;2022-09-01T14:32:49;3.92;;;1.77;;
51214;SDS011;41093;47.444;19.134;2022-09-01T14:35:16;1.67;;;1.20;;
51214;SDS011;41093;47.444;19.134;2022-09-01T14:37:43;2.17;;;1.23;;
51214;SDS011;41093;47.444;19.134;2022-09-01T14:40:11;0.90;;;0.88;;
51214;SDS011;41093;47.444;19.134;2022-09-01T14:42:39;1.58;;;1.10;;
51214;SDS011;41093;47.444;19.134;2022-09-01T14:45:08;1.73;;;0.90;;
51214;SDS011;41093;47.444;19.134;2022-09-01T14:47:36;1.00;;;0.80;;
51214;SDS011;41093;47.444;19.134;2022-09-01T14:50:03;2.60;;;1.88;;
51214;SDS011;41093;47.444;19.134;2022-09-01T14:52:30;1.20;;;0.65;;
51214;SDS011;41093;47.444;19.134;2022-09-01T14:54:56;1.20;;;1.02;;
51214;SDS011;41093;47.444;19.134;2022-09-01T14:57:22;1.13;;;0.70;;
51214;SDS011;41093;47.444;19.134;2022-09-01T14:59:48;1.40;;;1.30;;
51214;SDS011;41093;47.444;19.134;2022-09-01T15:02:13;2.45;;;1.10;;
51214;SDS011;41093;47.444;19.134;2022-09-01T15:04:39;1.65;;;1.25;;
51214;SDS011;41093;47.444;19.134;2022-09-01T15:07:06;0.80;;;0.68;;
51214;SDS011;41093;47.444;19.134;2022-09-01T15:09:33;3.45;;;1.30;;
51214;SDS011;41093;47.444;19.134;2022-09-01T15:12:00;1.38;;;0.90;;
51214;SDS011;41093;47.444;19.134;2022-09-01T15:14:26;1.55;;;1.02;;
51214;SDS011;41093;47.444;19.134;2022-09-01T15:16:52;0.90;;;0.85;;
51214;SDS011;41093;47.444;19.134;2022-09-01T15:19:18;2.25;;;0.70;;
51214;SDS011;41093;47.444;19.134;2022-09-01T15:21:44;1.58;;;0.90;;
51214;SDS011;41093;47.444;19.134;2022-09-01T15:24:11;2.35;;;0.85;;
51214;SDS011;41093;47.444;19.134;2022-09-01T15:26:37;1.38;;;0.90;;
51214;SDS011;41093;47.444;19.134;2022-09-01T15:29:05;1.25;;;0.95;;
51214;SDS011;41093;47.444;19.134;2022-09-01T15:31:37;3.57;;;0.80;;
51214;SDS011;41093;47.444;19.134;2022-09-01T15:34:03;2.28;;;1.10;;
51214;SDS011;41093;47.444;19.134;2022-09-01T15:36:30;1.98;;;0.80;;
51214;SDS011;41093;47.444;19.134;2022-09-01T15:38:58;1.75;;;1.15;;
51214;SDS011;41093;47.444;19.134;2022-09-01T15:41:26;0.90;;;0.90;;
51214;SDS011;41093;47.444;19.134;2022-09-01T15:43:54;1.35;;;1.00;;
51214;SDS011;41093;47.444;19.134;2022-09-01T15:46:21;2.15;;;1.15;;
51214;SDS011;41093;47.444;19.134;2022-09-01T15:48:55;1.50;;;1.10;;
51214;SDS011;41093;47.444;19.134;2022-09-01T15:53:46;2.83;;;1.08;;
51214;SDS011;41093;47.444;19.134;2022-09-01T15:56:16;1.48;;;0.90;;
51214;SDS011;41093;47.444;19.134;2022-09-01T15:58:43;0.70;;;0.70;;
51214;SDS011;41093;47.444;19.134;2022-09-01T16:01:09;1.40;;;0.98;;
51214;SDS011;41093;47.444;19.134;2022-09-01T16:03:34;1.30;;;0.80;;
51214;SDS011;41093;47.444;19.134;2022-09-01T16:06:00;1.13;;;1.02;;
51214;SDS011;41093;47.444;19.134;2022-09-01T16:08:27;3.33;;;1.02;;
51214;SDS011;41093;47.444;19.134;2022-09-01T16:10:53;3.38;;;1.08;;
51214;SDS011;41093;47.444;19.134;2022-09-01T16:13:19;3.55;;;0.70;;
51214;SDS011;41093;47.444;19.134;2022-09-01T16:15:54;1.50;;;0.93;;
51214;SDS011;41093;47.444;19.134;2022-09-01T16:22:10;1.08;;;0.98;;
51214;SDS011;41093;47.444;19.134;2022-09-01T16:25:00;3.10;;;0.90;;
51214;SDS011;41093;47.444;19.134;2022-09-01T16:27:40;2.58;;;1.10;;
51214;SDS011;41093;47.444;19.134;2022-09-01T16:30:08;1.35;;;0.98;;
51214;SDS011;41093;47.444;19.134;2022-09-01T16:32:41;1.60;;;0.90;;